Terminal Aerodrome Forecast
Issued by NWS Dodge City, KS

Home | Current Version | Previous Version | Text Only | Print | Product List | Glossary Off
Versions: 1 2 3 4 5 6 7 8 9 10 11 12 13 14 15 16 17 18 19 20 21 22 23 24 25 26 27 28 29 30 31 32 33 34 35 36 37 38 39

000
FTUS43 KDDC 180522
TAFDDC
TAF
KDDC 180522Z 1806/1906 31022G31KT P6SM SCT150 WS020/35050KT
     FM181200 33014G24KT P6SM SKC
     FM181700 34014KT P6SM SKC
     FM190000 VRB03KT P6SM FEW250=

USA.gov is the U.S. government's official web portal to all federal, state and local government web resources and services.